sensor_id;sensor_type;location;lat;lon;timestamp;P1;durP1;ratioP1;P2;durP2;ratioP2
74532;SDS011;63012;51.096;-115.366;2022-12-16T00:00:07;4.20;;;1.10;;
74532;SDS011;63012;51.096;-115.366;2022-12-16T00:02:35;4.20;;;0.90;;
74532;SDS011;63012;51.096;-115.366;2022-12-16T00:05:02;5.00;;;1.00;;
74532;SDS011;63012;51.096;-115.366;2022-12-16T00:07:30;3.80;;;0.60;;
74532;SDS011;63012;51.096;-115.366;2022-12-16T00:09:57;4.70;;;1.20;;
74532;SDS011;63012;51.096;-115.366;2022-12-16T00:12:24;5.70;;;1.40;;
74532;SDS011;63012;51.096;-115.366;2022-12-16T00:14:52;6.80;;;1.10;;
74532;SDS011;63012;51.096;-115.366;2022-12-16T00:17:20;5.80;;;1.20;;
74532;SDS011;63012;51.096;-115.366;2022-12-16T00:19:47;4.30;;;1.10;;
74532;SDS011;63012;51.096;-115.366;2022-12-16T00:22:13;5.20;;;1.10;;
74532;SDS011;63012;51.096;-115.366;2022-12-16T00:24:41;6.20;;;1.50;;
74532;SDS011;63012;51.096;-115.366;2022-12-16T00:27:08;5.50;;;0.90;;
74532;SDS011;63012;51.096;-115.366;2022-12-16T00:29:38;5.90;;;1.10;;
74532;SDS011;63012;51.096;-115.366;2022-12-16T00:32:05;4.40;;;0.80;;
74532;SDS011;63012;51.096;-115.366;2022-12-16T00:34:32;4.90;;;1.10;;
74532;SDS011;63012;51.096;-115.366;2022-12-16T00:36:59;5.10;;;1.10;;
74532;SDS011;63012;51.096;-115.366;2022-12-16T00:39:26;5.40;;;1.10;;
74532;SDS011;63012;51.096;-115.366;2022-12-16T00:41:53;5.00;;;1.10;;
74532;SDS011;63012;51.096;-115.366;2022-12-16T00:44:20;3.70;;;0.80;;
74532;SDS011;63012;51.096;-115.366;2022-12-16T00:46:47;3.60;;;1.00;;
74532;SDS011;63012;51.096;-115.366;2022-12-16T00:49:14;5.10;;;1.00;;
74532;SDS011;63012;51.096;-115.366;2022-12-16T00:51:41;4.20;;;0.70;;
74532;SDS011;63012;51.096;-115.366;2022-12-16T00:54:08;5.00;;;1.30;;
74532;SDS011;63012;51.096;-115.366;2022-12-16T00:56:35;4.70;;;1.40;;
74532;SDS011;63012;51.096;-115.366;2022-12-16T00:59:02;5.20;;;1.20;;
74532;SDS011;63012;51.096;-115.366;2022-12-16T01:01:29;2.30;;;0.50;;
74532;SDS011;63012;51.096;-115.366;2022-12-16T01:03:56;3.30;;;0.70;;
74532;SDS011;63012;51.096;-115.366;2022-12-16T01:06:23;4.50;;;0.90;;
74532;SDS011;63012;51.096;-115.366;2022-12-16T01:08:50;4.50;;;1.20;;
74532;SDS011;63012;51.096;-115.366;2022-12-16T01:11:18;4.90;;;1.20;;
74532;SDS011;63012;51.096;-115.366;2022-12-16T01:13:49;4.90;;;0.90;;
74532;SDS011;63012;51.096;-115.366;2022-12-16T01:16:17;6.00;;;1.00;;
74532;SDS011;63012;51.096;-115.366;2022-12-16T01:18:44;5.00;;;0.90;;
74532;SDS011;63012;51.096;-115.366;2022-12-16T01:21:13;4.00;;;0.70;;
74532;SDS011;63012;51.096;-115.366;2022-12-16T01:23:40;6.30;;;1.00;;
74532;SDS011;63012;51.096;-115.366;2022-12-16T01:26:13;3.80;;;0.70;;
74532;SDS011;63012;51.096;-115.366;2022-12-16T01:28:43;5.40;;;1.10;;
74532;SDS011;63012;51.096;-115.366;2022-12-16T01:31:14;5.20;;;1.00;;
74532;SDS011;63012;51.096;-115.366;2022-12-16T01:33:43;5.20;;;1.10;;
74532;SDS011;63012;51.096;-115.366;2022-12-16T01:36:10;5.00;;;1.30;;
74532;SDS011;63012;51.096;-115.366;2022-12-16T01:38:37;5.10;;;1.00;;
74532;SDS011;63012;51.096;-115.366;2022-12-16T01:41:11;4.50;;;0.70;;
74532;SDS011;63012;51.096;-115.366;2022-12-16T01:43:41;6.10;;;1.20;;
74532;SDS011;63012;51.096;-115.366;2022-12-16T01:49:19;4.20;;;0.80;;
74532;SDS011;63012;51.096;-115.366;2022-12-16T01:51:45;3.50;;;0.60;;
74532;SDS011;63012;51.096;-115.366;2022-12-16T01:54:20;5.80;;;1.20;;
74532;SDS011;63012;51.096;-115.366;2022-12-16T01:56:57;5.70;;;1.40;;
74532;SDS011;63012;51.096;-115.366;2022-12-16T01:59:28;6.80;;;1.70;;
74532;SDS011;63012;51.096;-115.366;2022-12-16T02:01:57;5.00;;;1.20;;
74532;SDS011;63012;51.096;-115.366;2022-12-16T02:04:24;5.70;;;1.00;;
74532;SDS011;63012;51.096;-115.366;2022-12-16T02:06:51;7.20;;;1.30;;
74532;SDS011;63012;51.096;-115.366;2022-12-16T02:09:19;6.60;;;1.20;;
74532;SDS011;63012;51.096;-115.366;2022-12-16T02:12:15;7.60;;;1.70;;
74532;SDS011;63012;51.096;-115.366;2022-12-16T02:15:25;5.20;;;1.00;;
74532;SDS011;63012;51.096;-115.366;2022-12-16T02:24:04;3.30;;;0.60;;
74532;SDS011;63012;51.096;-115.366;2022-12-16T02:27:03;4.90;;;1.10;;
74532;SDS011;63012;51.096;-115.366;2022-12-16T02:35:45;5.90;;;0.70;;
74532;SDS011;63012;51.096;-115.366;2022-12-16T02:41:06;2.90;;;0.60;;
74532;SDS011;63012;51.096;-115.366;2022-12-16T02:43:58;3.60;;;0.50;;
74532;SDS011;63012;51.096;-115.366;2022-12-16T02:46:32;3.30;;;0.70;;
74532;SDS011;63012;51.096;-115.366;2022-12-16T02:49:39;6.40;;;0.80;;
74532;SDS011;63012;51.096;-115.366;2022-12-16T02:51:57;6.30;;;0.90;;
74532;SDS011;63012;51.096;-115.366;2022-12-16T02:54:27;8.90;;;1.20;;
74532;SDS011;63012;51.096;-115.366;2022-12-16T02:57:22;5.20;;;0.80;;
74532;SDS011;63012;51.096;-115.366;2022-12-16T03:00:15;7.50;;;1.10;;
74532;SDS011;63012;51.096;-115.366;2022-12-16T03:05:38;5.30;;;0.70;;
74532;SDS011;63012;51.096;-115.366;2022-12-16T03:08:43;4.20;;;0.70;;
74532;SDS011;63012;51.096;-115.366;2022-12-16T03:11:15;7.90;;;0.80;;
74532;SDS011;63012;51.096;-115.366;2022-12-16T03:13:45;3.00;;;0.70;;
74532;SDS011;63012;51.096;-115.366;2022-12-16T03:16:20;2.60;;;0.60;;
74532;SDS011;63012;51.096;-115.366;2022-12-16T03:18:54;7.20;;;0.70;;
74532;SDS011;63012;51.096;-115.366;2022-12-16T03:21:29;4.20;;;0.80;;
74532;SDS011;63012;51.096;-115.366;2022-12-16T03:24:06;4.50;;;0.70;;
74532;SDS011;63012;51.096;-115.366;2022-12-16T03:29:37;2.90;;;0.60;;
74532;SDS011;63012;51.096;-115.366;2022-12-16T03:32:23;3.70;;;0.90;;
74532;SDS011;63012;51.096;-115.366;2022-12-16T03:35:13;4.60;;;0.90;;
74532;SDS011;63012;51.096;-115.366;2022-12-16T03:37:53;5.30;;;0.80;;
74532;SDS011;63012;51.096;-115.366;2022-12-16T03:40:23;5.10;;;0.60;;
74532;SDS011;63012;51.096;-115.366;2022-12-16T03:42:53;4.50;;;0.70;;
74532;SDS011;63012;51.096;-115.366;2022-12-16T03:45:27;2.90;;;0.60;;
74532;SDS011;63012;51.096;-115.366;2022-12-16T03:47:59;4.00;;;1.20;;
74532;SDS011;63012;51.096;-115.366;2022-12-16T03:50:34;7.20;;;1.10;;
74532;SDS011;63012;51.096;-115.366;2022-12-16T03:53:02;3.60;;;0.70;;
74532;SDS011;63012;51.096;-115.366;2022-12-16T03:55:30;8.10;;;0.70;;
74532;SDS011;63012;51.096;-115.366;2022-12-16T03:57:58;3.70;;;0.70;;
74532;SDS011;63012;51.096;-115.366;2022-12-16T04:00:24;3.80;;;0.80;;
74532;SDS011;63012;51.096;-115.366;2022-12-16T04:02:52;4.30;;;0.70;;
74532;SDS011;63012;51.096;-115.366;2022-12-16T04:05:20;2.80;;;0.80;;
74532;SDS011;63012;51.096;-115.366;2022-12-16T04:07:47;3.30;;;0.60;;
74532;SDS011;63012;51.096;-115.366;2022-12-16T04:10:15;6.40;;;0.70;;
74532;SDS011;63012;51.096;-115.366;2022-12-16T04:12:42;3.00;;;0.60;;
74532;SDS011;63012;51.096;-115.366;2022-12-16T04:15:27;3.40;;;0.80;;
74532;SDS011;63012;51.096;-115.366;2022-12-16T04:18:14;4.80;;;0.80;;
74532;SDS011;63012;51.096;-115.366;2022-12-16T04:21:03;2.50;;;0.50;;
74532;SDS011;63012;51.096;-115.366;2022-12-16T04:23:51;3.20;;;0.60;;
74532;SDS011;63012;51.096;-115.366;2022-12-16T04:26:40;2.60;;;0.70;;
74532;SDS011;63012;51.096;-115.366;2022-12-16T04:29:26;5.80;;;0.90;;
74532;SDS011;63012;51.096;-115.366;2022-12-16T04:31:53;3.60;;;0.50;;
74532;SDS011;63012;51.096;-115.366;2022-12-16T04:34:21;4.70;;;0.90;;
74532;SDS011;63012;51.096;-115.366;2022-12-16T04:36:56;5.00;;;1.00;;
74532;SDS011;63012;51.096;-115.366;2022-12-16T04:39:44;4.00;;;1.00;;
74532;SDS011;63012;51.096;-115.366;2022-12-16T04:42:31;4.20;;;0.90;;
74532;SDS011;63012;51.096;-115.366;2022-12-16T04:45:17;2.70;;;0.60;;
74532;SDS011;63012;51.096;-115.366;2022-12-16T04:48:02;4.70;;;0.70;;
74532;SDS011;63012;51.096;-115.366;2022-12-16T04:50:47;2.90;;;0.50;;
74532;SDS011;63012;51.096;-115.366;2022-12-16T04:53:33;4.50;;;1.00;;
74532;SDS011;63012;51.096;-115.366;2022-12-16T04:56:18;3.10;;;0.70;;
74532;SDS011;63012;51.096;-115.366;2022-12-16T04:59:04;2.40;;;0.40;;
74532;SDS011;63012;51.096;-115.366;2022-12-16T05:01:49;4.70;;;1.00;;
74532;SDS011;63012;51.096;-115.366;2022-12-16T05:04:35;2.10;;;0.40;;
74532;SDS011;63012;51.096;-115.366;2022-12-16T05:07:20;2.90;;;0.50;;
74532;SDS011;63012;51.096;-115.366;2022-12-16T05:10:06;6.50;;;0.80;;
74532;SDS011;63012;51.096;-115.366;2022-12-16T05:12:53;5.30;;;0.70;;
74532;SDS011;63012;51.096;-115.366;2022-12-16T05:15:39;4.50;;;0.80;;
74532;SDS011;63012;51.096;-115.366;2022-12-16T05:18:24;4.40;;;0.40;;
74532;SDS011;63012;51.096;-115.366;2022-12-16T05:21:09;6.70;;;1.10;;
74532;SDS011;63012;51.096;-115.366;2022-12-16T05:23:55;4.90;;;0.90;;
74532;SDS011;63012;51.096;-115.366;2022-12-16T05:26:40;7.30;;;0.90;;
74532;SDS011;63012;51.096;-115.366;2022-12-16T05:29:26;4.20;;;0.40;;
74532;SDS011;63012;51.096;-115.366;2022-12-16T05:32:11;9.00;;;0.60;;
74532;SDS011;63012;51.096;-115.366;2022-12-16T05:34:57;3.70;;;0.70;;
74532;SDS011;63012;51.096;-115.366;2022-12-16T05:37:42;4.00;;;0.70;;
74532;SDS011;63012;51.096;-115.366;2022-12-16T05:40:28;2.80;;;0.60;;
74532;SDS011;63012;51.096;-115.366;2022-12-16T05:43:13;2.90;;;0.50;;
74532;SDS011;63012;51.096;-115.366;2022-12-16T05:45:59;2.30;;;0.40;;
74532;SDS011;63012;51.096;-115.366;2022-12-16T05:48:44;4.60;;;0.80;;
74532;SDS011;63012;51.096;-115.366;2022-12-16T05:51:29;5.30;;;0.70;;
74532;SDS011;63012;51.096;-115.366;2022-12-16T05:54:15;3.10;;;0.50;;
74532;SDS011;63012;51.096;-115.366;2022-12-16T05:57:00;2.70;;;0.40;;
74532;SDS011;63012;51.096;-115.366;2022-12-16T05:59:46;2.70;;;0.50;;
74532;SDS011;63012;51.096;-115.366;2022-12-16T06:02:31;3.00;;;0.60;;
74532;SDS011;63012;51.096;-115.366;2022-12-16T06:05:17;2.10;;;0.40;;
74532;SDS011;63012;51.096;-115.366;2022-12-16T06:08:02;2.30;;;0.40;;
74532;SDS011;63012;51.096;-115.366;2022-12-16T06:10:47;2.50;;;0.40;;
74532;SDS011;63012;51.096;-115.366;2022-12-16T06:13:33;2.30;;;0.70;;
74532;SDS011;63012;51.096;-115.366;2022-12-16T06:16:19;1.90;;;0.40;;
74532;SDS011;63012;51.096;-115.366;2022-12-16T06:19:04;2.90;;;0.60;;
74532;SDS011;63012;51.096;-115.366;2022-12-16T06:21:49;2.10;;;0.30;;
74532;SDS011;63012;51.096;-115.366;2022-12-16T06:24:35;2.40;;;0.30;;
74532;SDS011;63012;51.096;-115.366;2022-12-16T06:27:21;3.80;;;0.50;;
74532;SDS011;63012;51.096;-115.366;2022-12-16T06:30:06;3.80;;;1.10;;
74532;SDS011;63012;51.096;-115.366;2022-12-16T06:33:03;3.00;;;0.70;;
74532;SDS011;63012;51.096;-115.366;2022-12-16T06:35:48;3.40;;;0.70;;
74532;SDS011;63012;51.096;-115.366;2022-12-16T06:38:34;2.80;;;0.50;;
74532;SDS011;63012;51.096;-115.366;2022-12-16T06:41:19;4.50;;;0.50;;
74532;SDS011;63012;51.096;-115.366;2022-12-16T06:44:05;5.60;;;0.40;;
74532;SDS011;63012;51.096;-115.366;2022-12-16T06:46:50;1.90;;;0.40;;
74532;SDS011;63012;51.096;-115.366;2022-12-16T06:49:36;1.90;;;0.40;;
74532;SDS011;63012;51.096;-115.366;2022-12-16T06:52:22;3.20;;;0.40;;
74532;SDS011;63012;51.096;-115.366;2022-12-16T06:55:07;3.30;;;0.50;;
74532;SDS011;63012;51.096;-115.366;2022-12-16T06:57:57;4.10;;;0.80;;
74532;SDS011;63012;51.096;-115.366;2022-12-16T07:00:43;2.40;;;0.50;;
74532;SDS011;63012;51.096;-115.366;2022-12-16T07:03:28;4.90;;;0.50;;
74532;SDS011;63012;51.096;-115.366;2022-12-16T07:06:14;9.40;;;0.70;;
74532;SDS011;63012;51.096;-115.366;2022-12-16T07:08:59;5.00;;;0.40;;
74532;SDS011;63012;51.096;-115.366;2022-12-16T07:12:05;2.10;;;0.60;;
74532;SDS011;63012;51.096;-115.366;2022-12-16T07:14:51;4.90;;;0.80;;
74532;SDS011;63012;51.096;-115.366;2022-12-16T07:17:39;2.60;;;0.60;;
74532;SDS011;63012;51.096;-115.366;2022-12-16T07:20:24;6.70;;;0.50;;
74532;SDS011;63012;51.096;-115.366;2022-12-16T07:23:10;1.90;;;0.30;;
74532;SDS011;63012;51.096;-115.366;2022-12-16T07:25:55;2.90;;;0.50;;
74532;SDS011;63012;51.096;-115.366;2022-12-16T07:28:42;7.40;;;0.40;;
74532;SDS011;63012;51.096;-115.366;2022-12-16T07:31:27;1.60;;;0.40;;
74532;SDS011;63012;51.096;-115.366;2022-12-16T07:34:13;3.00;;;0.40;;
74532;SDS011;63012;51.096;-115.366;2022-12-16T07:36:58;3.00;;;0.40;;
74532;SDS011;63012;51.096;-115.366;2022-12-16T07:39:44;1.90;;;0.50;;
74532;SDS011;63012;51.096;-115.366;2022-12-16T07:42:29;2.60;;;0.50;;
74532;SDS011;63012;51.096;-115.366;2022-12-16T07:45:15;1.90;;;0.50;;
74532;SDS011;63012;51.096;-115.366;2022-12-16T07:48:00;2.50;;;0.50;;
74532;SDS011;63012;51.096;-115.366;2022-12-16T07:50:46;3.10;;;0.30;;
74532;SDS011;63012;51.096;-115.366;2022-12-16T07:53:32;1.70;;;0.60;;
74532;SDS011;63012;51.096;-115.366;2022-12-16T07:56:19;2.80;;;0.60;;
74532;SDS011;63012;51.096;-115.366;2022-12-16T07:59:04;2.20;;;0.50;;
74532;SDS011;63012;51.096;-115.366;2022-12-16T08:01:50;2.50;;;0.40;;
74532;SDS011;63012;51.096;-115.366;2022-12-16T08:04:35;1.90;;;0.40;;
74532;SDS011;63012;51.096;-115.366;2022-12-16T08:07:21;1.70;;;0.50;;
74532;SDS011;63012;51.096;-115.366;2022-12-16T08:10:06;2.00;;;0.40;;
74532;SDS011;63012;51.096;-115.366;2022-12-16T08:13:02;1.60;;;0.30;;
74532;SDS011;63012;51.096;-115.366;2022-12-16T08:15:48;1.60;;;0.30;;
74532;SDS011;63012;51.096;-115.366;2022-12-16T08:18:34;1.60;;;0.40;;
74532;SDS011;63012;51.096;-115.366;2022-12-16T08:21:19;2.80;;;0.40;;
74532;SDS011;63012;51.096;-115.366;2022-12-16T08:24:05;2.40;;;0.40;;
74532;SDS011;63012;51.096;-115.366;2022-12-16T08:26:50;3.40;;;0.50;;
74532;SDS011;63012;51.096;-115.366;2022-12-16T08:29:35;2.00;;;0.30;;
74532;SDS011;63012;51.096;-115.366;2022-12-16T08:32:21;3.00;;;0.60;;
74532;SDS011;63012;51.096;-115.366;2022-12-16T08:35:07;2.50;;;0.60;;
74532;SDS011;63012;51.096;-115.366;2022-12-16T08:37:55;7.00;;;0.70;;
74532;SDS011;63012;51.096;-115.366;2022-12-16T08:40:42;6.90;;;1.00;;
74532;SDS011;63012;51.096;-115.366;2022-12-16T08:43:33;6.90;;;0.90;;
74532;SDS011;63012;51.096;-115.366;2022-12-16T08:46:19;5.80;;;1.10;;
74532;SDS011;63012;51.096;-115.366;2022-12-16T08:49:04;3.20;;;0.50;;
74532;SDS011;63012;51.096;-115.366;2022-12-16T08:51:50;4.80;;;0.70;;
74532;SDS011;63012;51.096;-115.366;2022-12-16T08:54:36;7.40;;;1.10;;
74532;SDS011;63012;51.096;-115.366;2022-12-16T08:57:21;15.10;;;0.90;;
74532;SDS011;63012;51.096;-115.366;2022-12-16T09:00:07;11.00;;;0.80;;
74532;SDS011;63012;51.096;-115.366;2022-12-16T09:02:57;11.30;;;1.10;;
74532;SDS011;63012;51.096;-115.366;2022-12-16T09:05:44;7.70;;;1.30;;
74532;SDS011;63012;51.096;-115.366;2022-12-16T09:08:29;3.30;;;0.80;;
74532;SDS011;63012;51.096;-115.366;2022-12-16T09:11:15;6.80;;;0.60;;
74532;SDS011;63012;51.096;-115.366;2022-12-16T09:14:00;4.40;;;0.60;;
74532;SDS011;63012;51.096;-115.366;2022-12-16T09:16:47;7.40;;;0.70;;
74532;SDS011;63012;51.096;-115.366;2022-12-16T09:19:32;3.20;;;0.60;;
74532;SDS011;63012;51.096;-115.366;2022-12-16T09:22:18;2.60;;;0.50;;
74532;SDS011;63012;51.096;-115.366;2022-12-16T09:25:03;3.80;;;0.30;;
74532;SDS011;63012;51.096;-115.366;2022-12-16T09:27:49;4.40;;;0.50;;
74532;SDS011;63012;51.096;-115.366;2022-12-16T09:30:35;5.40;;;0.70;;
74532;SDS011;63012;51.096;-115.366;2022-12-16T09:33:20;3.70;;;0.60;;
74532;SDS011;63012;51.096;-115.366;2022-12-16T09:36:05;5.00;;;0.50;;
74532;SDS011;63012;51.096;-115.366;2022-12-16T09:38:51;6.60;;;0.60;;
74532;SDS011;63012;51.096;-115.366;2022-12-16T09:41:45;3.00;;;0.40;;
74532;SDS011;63012;51.096;-115.366;2022-12-16T09:51:57;8.10;;;1.20;;
74532;SDS011;63012;51.096;-115.366;2022-12-16T09:54:46;4.50;;;0.40;;
74532;SDS011;63012;51.096;-115.366;2022-12-16T09:57:34;6.40;;;0.70;;
74532;SDS011;63012;51.096;-115.366;2022-12-16T10:00:25;5.00;;;0.70;;
74532;SDS011;63012;51.096;-115.366;2022-12-16T10:03:35;6.20;;;1.20;;
74532;SDS011;63012;51.096;-115.366;2022-12-16T10:06:44;4.70;;;0.70;;
74532;SDS011;63012;51.096;-115.366;2022-12-16T10:12:38;3.00;;;0.40;;
74532;SDS011;63012;51.096;-115.366;2022-12-16T10:15:44;3.60;;;0.50;;
74532;SDS011;63012;51.096;-115.366;2022-12-16T10:25:45;3.40;;;0.50;;
74532;SDS011;63012;51.096;-115.366;2022-12-16T10:28:48;7.80;;;0.70;;
74532;SDS011;63012;51.096;-115.366;2022-12-16T10:31:40;5.00;;;0.50;;
74532;SDS011;63012;51.096;-115.366;2022-12-16T10:34:31;2.10;;;0.50;;
74532;SDS011;63012;51.096;-115.366;2022-12-16T10:37:32;2.20;;;0.30;;
74532;SDS011;63012;51.096;-115.366;2022-12-16T10:40:27;2.10;;;0.50;;
74532;SDS011;63012;51.096;-115.366;2022-12-16T10:43:32;2.70;;;0.50;;
74532;SDS011;63012;51.096;-115.366;2022-12-16T10:46:27;2.60;;;0.50;;
74532;SDS011;63012;51.096;-115.366;2022-12-16T10:49:16;2.00;;;0.40;;
74532;SDS011;63012;51.096;-115.366;2022-12-16T10:52:01;2.70;;;0.60;;
74532;SDS011;63012;51.096;-115.366;2022-12-16T10:55:11;2.90;;;0.50;;
74532;SDS011;63012;51.096;-115.366;2022-12-16T10:58:29;5.40;;;0.50;;
74532;SDS011;63012;51.096;-115.366;2022-12-16T11:01:27;4.00;;;0.60;;
74532;SDS011;63012;51.096;-115.366;2022-12-16T11:04:35;2.80;;;0.50;;
74532;SDS011;63012;51.096;-115.366;2022-12-16T11:13:24;2.20;;;0.40;;
74532;SDS011;63012;51.096;-115.366;2022-12-16T11:16:24;6.00;;;0.70;;
74532;SDS011;63012;51.096;-115.366;2022-12-16T11:19:25;1.00;;;0.20;;
74532;SDS011;63012;51.096;-115.366;2022-12-16T11:22:22;4.80;;;0.60;;
74532;SDS011;63012;51.096;-115.366;2022-12-16T11:25:19;5.50;;;0.70;;
74532;SDS011;63012;51.096;-115.366;2022-12-16T11:28:16;4.30;;;0.60;;
74532;SDS011;63012;51.096;-115.366;2022-12-16T11:31:06;3.10;;;0.70;;
74532;SDS011;63012;51.096;-115.366;2022-12-16T11:33:59;2.10;;;0.40;;
74532;SDS011;63012;51.096;-115.366;2022-12-16T11:36:48;1.60;;;0.30;;
74532;SDS011;63012;51.096;-115.366;2022-12-16T11:39:35;3.40;;;0.50;;
74532;SDS011;63012;51.096;-115.366;2022-12-16T11:42:27;2.60;;;0.50;;
74532;SDS011;63012;51.096;-115.366;2022-12-16T11:45:18;3.80;;;0.60;;
74532;SDS011;63012;51.096;-115.366;2022-12-16T11:48:28;2.60;;;0.50;;
74532;SDS011;63012;51.096;-115.366;2022-12-16T11:51:23;3.00;;;0.60;;
74532;SDS011;63012;51.096;-115.366;2022-12-16T11:54:27;1.80;;;0.40;;
74532;SDS011;63012;51.096;-115.366;2022-12-16T11:57:22;3.10;;;0.40;;
74532;SDS011;63012;51.096;-115.366;2022-12-16T12:00:24;3.10;;;0.80;;
74532;SDS011;63012;51.096;-115.366;2022-12-16T12:03:14;2.80;;;0.60;;
74532;SDS011;63012;51.096;-115.366;2022-12-16T12:09:25;2.80;;;0.50;;
74532;SDS011;63012;51.096;-115.366;2022-12-16T12:18:49;2.70;;;0.40;;
74532;SDS011;63012;51.096;-115.366;2022-12-16T12:25:11;1.60;;;0.30;;
74532;SDS011;63012;51.096;-115.366;2022-12-16T12:31:51;1.20;;;0.30;;
74532;SDS011;63012;51.096;-115.366;2022-12-16T12:38:17;1.90;;;0.20;;
74532;SDS011;63012;51.096;-115.366;2022-12-16T12:41:14;2.30;;;0.30;;
74532;SDS011;63012;51.096;-115.366;2022-12-16T12:44:43;1.60;;;0.30;;
74532;SDS011;63012;51.096;-115.366;2022-12-16T12:47:53;3.20;;;0.40;;
74532;SDS011;63012;51.096;-115.366;2022-12-16T12:56:52;9.60;;;0.40;;
74532;SDS011;63012;51.096;-115.366;2022-12-16T13:06:22;2.50;;;0.40;;
74532;SDS011;63012;51.096;-115.366;2022-12-16T13:09:28;11.10;;;0.40;;
74532;SDS011;63012;51.096;-115.366;2022-12-16T13:12:29;13.20;;;0.80;;
74532;SDS011;63012;51.096;-115.366;2022-12-16T13:15:37;3.40;;;0.80;;
74532;SDS011;63012;51.096;-115.366;2022-12-16T13:18:28;4.10;;;0.50;;
74532;SDS011;63012;51.096;-115.366;2022-12-16T13:24:45;3.70;;;0.70;;
74532;SDS011;63012;51.096;-115.366;2022-12-16T13:27:48;3.40;;;0.50;;
74532;SDS011;63012;51.096;-115.366;2022-12-16T13:30:38;2.30;;;0.60;;
74532;SDS011;63012;51.096;-115.366;2022-12-16T13:33:26;5.40;;;0.50;;
74532;SDS011;63012;51.096;-115.366;2022-12-16T13:36:16;6.60;;;0.40;;
74532;SDS011;63012;51.096;-115.366;2022-12-16T13:45:34;5.30;;;0.40;;
74532;SDS011;63012;51.096;-115.366;2022-12-16T13:54:38;3.80;;;0.50;;
74532;SDS011;63012;51.096;-115.366;2022-12-16T13:57:31;4.90;;;0.40;;
74532;SDS011;63012;51.096;-115.366;2022-12-16T14:00:24;3.80;;;0.60;;
74532;SDS011;63012;51.096;-115.366;2022-12-16T14:03:35;2.50;;;0.50;;
74532;SDS011;63012;51.096;-115.366;2022-12-16T14:06:24;2.60;;;0.30;;
74532;SDS011;63012;51.096;-115.366;2022-12-16T14:09:40;6.20;;;0.60;;
74532;SDS011;63012;51.096;-115.366;2022-12-16T14:12:39;4.00;;;0.50;;
74532;SDS011;63012;51.096;-115.366;2022-12-16T14:15:49;2.80;;;0.40;;
74532;SDS011;63012;51.096;-115.366;2022-12-16T14:25:20;7.60;;;0.80;;
74532;SDS011;63012;51.096;-115.366;2022-12-16T14:28:32;2.80;;;0.30;;
74532;SDS011;63012;51.096;-115.366;2022-12-16T14:34:19;2.10;;;0.50;;
74532;SDS011;63012;51.096;-115.366;2022-12-16T14:40:03;1.40;;;0.30;;
74532;SDS011;63012;51.096;-115.366;2022-12-16T14:43:21;2.20;;;0.30;;
74532;SDS011;63012;51.096;-115.366;2022-12-16T14:46:28;3.90;;;0.20;;
74532;SDS011;63012;51.096;-115.366;2022-12-16T14:49:26;4.40;;;0.60;;
74532;SDS011;63012;51.096;-115.366;2022-12-16T14:55:15;2.70;;;0.50;;
74532;SDS011;63012;51.096;-115.366;2022-12-16T14:58:16;3.90;;;0.80;;
74532;SDS011;63012;51.096;-115.366;2022-12-16T15:01:20;4.20;;;0.80;;
74532;SDS011;63012;51.096;-115.366;2022-12-16T15:04:16;9.80;;;0.60;;
74532;SDS011;63012;51.096;-115.366;2022-12-16T15:07:05;2.50;;;0.30;;
74532;SDS011;63012;51.096;-115.366;2022-12-16T15:10:01;3.40;;;0.50;;
74532;SDS011;63012;51.096;-115.366;2022-12-16T15:12:48;1.70;;;0.30;;
74532;SDS011;63012;51.096;-115.366;2022-12-16T15:15:45;2.60;;;0.30;;
74532;SDS011;63012;51.096;-115.366;2022-12-16T15:18:59;3.60;;;0.60;;
74532;SDS011;63012;51.096;-115.366;2022-12-16T15:21:46;2.30;;;0.50;;
74532;SDS011;63012;51.096;-115.366;2022-12-16T15:24:36;4.80;;;0.60;;
74532;SDS011;63012;51.096;-115.366;2022-12-16T15:27:24;2.60;;;0.40;;
74532;SDS011;63012;51.096;-115.366;2022-12-16T15:30:36;3.90;;;0.60;;
74532;SDS011;63012;51.096;-115.366;2022-12-16T15:33:29;2.30;;;0.30;;
74532;SDS011;63012;51.096;-115.366;2022-12-16T15:36:29;5.40;;;0.50;;
74532;SDS011;63012;51.096;-115.366;2022-12-16T15:39:35;10.60;;;0.60;;
74532;SDS011;63012;51.096;-115.366;2022-12-16T15:42:27;4.70;;;0.40;;
74532;SDS011;63012;51.096;-115.366;2022-12-16T15:45:27;3.30;;;0.60;;
74532;SDS011;63012;51.096;-115.366;2022-12-16T15:48:27;4.40;;;0.50;;
74532;SDS011;63012;51.096;-115.366;2022-12-16T15:51:48;2.30;;;0.40;;
74532;SDS011;63012;51.096;-115.366;2022-12-16T15:54:52;2.50;;;0.50;;
74532;SDS011;63012;51.096;-115.366;2022-12-16T15:57:38;8.90;;;0.50;;
74532;SDS011;63012;51.096;-115.366;2022-12-16T16:00:30;6.60;;;0.60;;
74532;SDS011;63012;51.096;-115.366;2022-12-16T16:03:27;4.20;;;0.80;;
74532;SDS011;63012;51.096;-115.366;2022-12-16T16:06:25;4.40;;;0.50;;
74532;SDS011;63012;51.096;-115.366;2022-12-16T16:09:29;2.90;;;0.30;;
74532;SDS011;63012;51.096;-115.366;2022-12-16T16:12:18;2.10;;;0.40;;
74532;SDS011;63012;51.096;-115.366;2022-12-16T16:15:08;3.90;;;0.40;;
74532;SDS011;63012;51.096;-115.366;2022-12-16T16:17:58;7.00;;;0.70;;
74532;SDS011;63012;51.096;-115.366;2022-12-16T16:20:49;2.90;;;0.60;;
74532;SDS011;63012;51.096;-115.366;2022-12-16T16:23:35;3.40;;;0.70;;
74532;SDS011;63012;51.096;-115.366;2022-12-16T16:26:24;2.80;;;0.50;;
74532;SDS011;63012;51.096;-115.366;2022-12-16T16:29:12;4.60;;;0.50;;
74532;SDS011;63012;51.096;-115.366;2022-12-16T16:31:56;2.90;;;0.70;;
74532;SDS011;63012;51.096;-115.366;2022-12-16T16:34:41;3.70;;;0.60;;
74532;SDS011;63012;51.096;-115.366;2022-12-16T16:37:27;2.00;;;0.40;;
74532;SDS011;63012;51.096;-115.366;2022-12-16T16:40:30;2.30;;;0.50;;
74532;SDS011;63012;51.096;-115.366;2022-12-16T16:43:17;4.60;;;0.50;;
74532;SDS011;63012;51.096;-115.366;2022-12-16T16:46:25;2.80;;;0.70;;
74532;SDS011;63012;51.096;-115.366;2022-12-16T16:49:44;8.60;;;0.90;;
74532;SDS011;63012;51.096;-115.366;2022-12-16T16:52:31;7.20;;;0.60;;
74532;SDS011;63012;51.096;-115.366;2022-12-16T16:55:23;2.40;;;0.50;;
74532;SDS011;63012;51.096;-115.366;2022-12-16T16:58:22;4.10;;;0.50;;
74532;SDS011;63012;51.096;-115.366;2022-12-16T17:01:15;5.50;;;0.60;;
74532;SDS011;63012;51.096;-115.366;2022-12-16T17:04:02;8.50;;;0.80;;
74532;SDS011;63012;51.096;-115.366;2022-12-16T17:06:47;8.80;;;0.50;;
74532;SDS011;63012;51.096;-115.366;2022-12-16T17:09:32;3.50;;;0.50;;
74532;SDS011;63012;51.096;-115.366;2022-12-16T17:12:22;5.30;;;0.50;;
74532;SDS011;63012;51.096;-115.366;2022-12-16T17:15:18;4.60;;;0.70;;
74532;SDS011;63012;51.096;-115.366;2022-12-16T17:18:04;5.00;;;0.70;;
74532;SDS011;63012;51.096;-115.366;2022-12-16T17:20:51;2.30;;;0.50;;
74532;SDS011;63012;51.096;-115.366;2022-12-16T17:23:37;7.80;;;0.40;;
74532;SDS011;63012;51.096;-115.366;2022-12-16T17:26:23;13.50;;;0.50;;
74532;SDS011;63012;51.096;-115.366;2022-12-16T17:29:22;4.50;;;0.60;;
74532;SDS011;63012;51.096;-115.366;2022-12-16T17:32:09;5.40;;;0.50;;
74532;SDS011;63012;51.096;-115.366;2022-12-16T17:34:54;3.60;;;0.80;;
74532;SDS011;63012;51.096;-115.366;2022-12-16T17:37:40;3.30;;;0.70;;
74532;SDS011;63012;51.096;-115.366;2022-12-16T17:40:26;8.70;;;0.90;;
74532;SDS011;63012;51.096;-115.366;2022-12-16T17:43:12;9.50;;;1.10;;
74532;SDS011;63012;51.096;-115.366;2022-12-16T17:46:03;6.30;;;0.70;;
74532;SDS011;63012;51.096;-115.366;2022-12-16T17:48:52;7.30;;;0.80;;